createdAt,value
2023-05-05T00:01:02.172Z,67.42
2023-05-05T00:03:30.085Z,67.34
2023-05-05T00:05:58.223Z,67.49
2023-05-05T00:08:26.018Z,67.52
2023-05-05T00:10:53.934Z,67.80
2023-05-05T00:13:21.874Z,68.16
2023-05-05T00:15:50.700Z,68.52
2023-05-05T00:18:18.974Z,68.65
2023-05-05T00:20:49.715Z,68.82
2023-05-05T00:23:17.922Z,69.05
2023-05-05T00:25:45.722Z,69.33
2023-05-05T00:28:16.547Z,69.39
2023-05-05T00:30:45.072Z,69.40
2023-05-05T00:33:13.120Z,69.35
2023-05-05T00:35:40.820Z,69.45
2023-05-05T00:38:08.559Z,69.58
2023-05-05T00:40:37.097Z,69.57
2023-05-05T00:43:05.748Z,69.81
2023-05-05T00:45:33.491Z,69.83
2023-05-05T00:48:01.757Z,69.92
2023-05-05T00:50:30.582Z,70.10
2023-05-05T00:53:02.261Z,70.20
2023-05-05T00:55:30.581Z,70.10
2023-05-05T00:57:59.631Z,70.20
2023-05-05T01:00:28.130Z,70.05
2023-05-05T01:02:56.415Z,70.37
2023-05-05T01:05:27.855Z,70.62
2023-05-05T01:08:06.183Z,70.43
2023-05-05T01:10:54.163Z,70.70
2023-05-05T01:13:37.469Z,70.82
2023-05-05T01:16:15.464Z,70.78
2023-05-05T01:18:52.306Z,70.75
2023-05-05T01:21:33.408Z,70.77
2023-05-05T01:24:01.174Z,70.93
2023-05-05T01:26:35.086Z,71.14
2023-05-05T01:29:02.875Z,71.10
2023-05-05T01:31:39.612Z,71.05
2023-05-05T01:34:08.548Z,71.18
2023-05-05T01:36:38.044Z,71.20
2023-05-05T01:39:08.352Z,71.21
2023-05-05T01:42:02.633Z,71.08
2023-05-05T01:44:31.288Z,71.09
2023-05-05T01:46:59.727Z,71.15
2023-05-05T01:49:28.183Z,71.30
2023-05-05T01:51:56.558Z,71.50
2023-05-05T01:54:25.069Z,71.73
2023-05-05T01:56:54.452Z,72.02
2023-05-05T01:59:23.490Z,72.01
2023-05-05T02:01:52.073Z,72.13
2023-05-05T02:04:22.890Z,72.18
2023-05-05T02:06:53.098Z,72.12
2023-05-05T02:09:25.009Z,72.10
2023-05-05T02:11:54.502Z,72.13
2023-05-05T02:14:23.158Z,72.31
2023-05-05T02:16:51.625Z,72.55
2023-05-05T02:19:21.387Z,72.62
2023-05-05T02:21:49.821Z,72.55
2023-05-05T02:24:17.501Z,72.54
2023-05-05T02:26:46.193Z,72.72
2023-05-05T02:29:16.529Z,72.83
2023-05-05T02:31:48.029Z,72.70
2023-05-05T02:34:21.400Z,72.69
2023-05-05T02:36:51.624Z,72.68
2023-05-05T02:39:35.956Z,72.55
2023-05-05T02:42:08.237Z,72.54
2023-05-05T02:44:37.008Z,72.47
2023-05-05T02:47:05.042Z,72.45
2023-05-05T02:49:33.159Z,72.50
2023-05-05T02:52:01.233Z,72.51
2023-05-05T02:54:33.287Z,72.54
2023-05-05T02:57:02.240Z,72.50
2023-05-05T02:59:36.577Z,72.28
2023-05-05T03:02:13.933Z,72.07
2023-05-05T03:04:56.476Z,71.81
2023-05-05T03:07:30.684Z,71.29
2023-05-05T03:10:05.123Z,71.05
2023-05-05T03:12:37.461Z,70.87
2023-05-05T03:15:22.321Z,70.80
2023-05-05T03:17:53.115Z,70.82
2023-05-05T03:20:21.798Z,71.01
2023-05-05T03:22:50.790Z,71.01
2023-05-05T03:25:18.640Z,70.92
2023-05-05T03:27:46.632Z,70.87
2023-05-05T03:30:15.981Z,70.92
2023-05-05T03:32:48.740Z,71.06
2023-05-05T03:35:16.895Z,71.33
2023-05-05T03:37:45.050Z,71.46
2023-05-05T03:40:13.827Z,71.45
2023-05-05T03:42:42.030Z,71.62
2023-05-05T03:45:10.265Z,71.73
2023-05-05T03:47:38.377Z,71.66
2023-05-05T03:50:07.558Z,71.68
2023-05-05T03:52:36.918Z,71.64
2023-05-05T03:55:04.873Z,71.66
2023-05-05T03:57:34.298Z,71.67
2023-05-05T04:00:02.350Z,71.65
2023-05-05T04:02:30.954Z,71.65
2023-05-05T04:04:59.015Z,71.69
2023-05-05T04:07:27.192Z,71.54
2023-05-05T04:09:56.124Z,71.54
2023-05-05T04:12:23.869Z,71.39
2023-05-05T04:14:51.808Z,71.33
2023-05-05T04:17:20.032Z,71.43
2023-05-05T04:19:47.790Z,71.60
2023-05-05T04:22:16.107Z,71.46
2023-05-05T04:24:44.085Z,71.31
2023-05-05T04:27:12.442Z,71.10
2023-05-05T04:29:40.910Z,71.09
2023-05-05T04:32:08.717Z,71.10
2023-05-05T04:34:36.988Z,71.43
2023-05-05T04:37:05.120Z,72.22
2023-05-05T04:39:33.453Z,71.26
2023-05-05T04:42:02.212Z,70.90
2023-05-05T04:44:30.014Z,70.73
2023-05-05T04:46:58.112Z,70.46
2023-05-05T04:49:26.251Z,70.39
2023-05-05T04:51:54.238Z,70.16
2023-05-05T04:54:22.746Z,69.98
2023-05-05T04:56:50.803Z,69.79
2023-05-05T04:59:18.635Z,69.70
2023-05-05T05:01:47.239Z,69.62
2023-05-05T05:04:18.378Z,69.45
2023-05-05T05:06:46.489Z,69.26
2023-05-05T05:09:14.518Z,69.14
2023-05-05T05:11:42.239Z,68.81
2023-05-05T05:14:10.191Z,68.43
2023-05-05T05:16:38.248Z,68.05
2023-05-05T05:19:06.973Z,67.77
2023-05-05T05:21:34.786Z,67.74
2023-05-05T05:24:02.629Z,67.72
2023-05-05T05:26:30.388Z,67.63
2023-05-05T05:28:58.292Z,67.43
2023-05-05T05:31:26.151Z,67.23
2023-05-05T05:33:54.027Z,67.23
2023-05-05T05:36:21.931Z,67.14
2023-05-05T05:38:49.909Z,67.01
2023-05-05T05:41:18.103Z,67.02
2023-05-05T05:43:46.008Z,66.96
2023-05-05T05:46:13.860Z,66.88
2023-05-05T05:48:42.292Z,66.77
2023-05-05T05:51:10.358Z,66.98
2023-05-05T05:53:38.626Z,67.15
2023-05-05T05:56:06.754Z,67.15
2023-05-05T05:58:34.886Z,67.44
2023-05-05T06:01:04.964Z,67.36
2023-05-05T06:03:33.025Z,67.37
2023-05-05T06:06:00.977Z,67.17
2023-05-05T06:08:28.901Z,67.02
2023-05-05T06:10:57.931Z,66.66
2023-05-05T06:13:26.060Z,66.31
2023-05-05T06:15:53.772Z,65.99
2023-05-05T06:18:21.729Z,65.76
2023-05-05T06:20:50.753Z,65.69
2023-05-05T06:23:18.687Z,65.38
2023-05-05T06:25:51.021Z,65.08
2023-05-05T06:28:18.923Z,64.63
2023-05-05T06:30:46.677Z,64.23
2023-05-05T06:33:14.634Z,64.06
2023-05-05T06:35:42.779Z,63.95
2023-05-05T06:38:10.610Z,63.67
2023-05-05T06:40:38.343Z,63.59
2023-05-05T06:43:06.135Z,63.33
2023-05-05T06:45:37.202Z,63.27
2023-05-05T06:48:04.929Z,63.34
2023-05-05T06:50:33.044Z,63.04
2023-05-05T06:53:01.300Z,62.60
2023-05-05T06:55:29.049Z,61.53
2023-05-05T06:57:56.793Z,61.52
2023-05-05T07:00:24.631Z,61.06
2023-05-05T07:02:52.443Z,60.63
2023-05-05T07:05:20.446Z,60.73
2023-05-05T07:07:52.854Z,60.42
2023-05-05T07:10:21.437Z,60.60
2023-05-05T07:12:49.421Z,60.49
2023-05-05T07:15:27.655Z,60.62
2023-05-05T07:17:57.787Z,60.53
2023-05-05T07:20:25.986Z,59.82
2023-05-05T07:22:53.832Z,59.31
2023-05-05T07:25:21.832Z,59.08
2023-05-05T07:27:49.848Z,59.08
2023-05-05T07:30:19.098Z,58.07
2023-05-05T07:32:47.666Z,56.90
2023-05-05T07:35:15.550Z,56.21
2023-05-05T07:37:44.320Z,55.28
2023-05-05T07:40:12.380Z,54.67
2023-05-05T07:42:40.249Z,54.35
2023-05-05T07:45:08.421Z,54.18
2023-05-05T07:47:36.301Z,53.95
2023-05-05T07:50:05.053Z,53.69
2023-05-05T07:52:45.313Z,53.59
2023-05-05T07:55:16.098Z,53.43
2023-05-05T07:57:43.760Z,52.99
2023-05-05T08:00:13.238Z,52.63
2023-05-05T08:02:41.730Z,51.94
2023-05-05T08:05:09.906Z,51.48
2023-05-05T08:07:41.298Z,51.93
2023-05-05T08:10:11.055Z,51.66
2023-05-05T08:12:39.266Z,51.16
2023-05-05T08:15:07.820Z,49.91
2023-05-05T08:17:46.084Z,50.23
2023-05-05T08:20:14.766Z,50.49
2023-05-05T08:22:42.997Z,50.29
2023-05-05T08:25:11.660Z,50.70
2023-05-05T08:27:40.095Z,50.66
2023-05-05T08:30:08.525Z,50.60
2023-05-05T08:32:36.694Z,50.15
2023-05-05T08:35:05.302Z,50.21
2023-05-05T08:37:33.177Z,49.63
2023-05-05T08:40:01.165Z,49.41
2023-05-05T08:42:37.280Z,49.14
2023-05-05T08:45:06.899Z,49.20
2023-05-05T08:47:35.980Z,48.96
2023-05-05T08:50:05.755Z,48.14
2023-05-05T08:52:39.576Z,47.53
2023-05-05T08:55:13.337Z,47.23
2023-05-05T08:57:46.377Z,46.46
2023-05-05T09:00:14.624Z,46.20
2023-05-05T09:02:43.255Z,45.84
2023-05-05T09:05:11.497Z,45.17
2023-05-05T09:07:41.377Z,44.78
2023-05-05T09:10:10.355Z,44.00
2023-05-05T09:12:41.652Z,43.60
2023-05-05T09:15:10.516Z,43.41
2023-05-05T09:17:39.250Z,43.70
2023-05-05T09:20:08.315Z,43.20
2023-05-05T09:22:36.955Z,42.77
2023-05-05T09:25:08.997Z,42.56
2023-05-05T09:27:37.709Z,41.74
2023-05-05T09:30:06.073Z,41.78
2023-05-05T09:32:47.448Z,42.51
2023-05-05T09:35:16.111Z,42.39
2023-05-05T09:37:43.947Z,41.70
2023-05-05T09:40:13.447Z,41.00
2023-05-05T09:42:41.166Z,39.84
2023-05-05T09:45:18.486Z,39.67
2023-05-05T09:47:47.235Z,40.40
2023-05-05T09:50:17.066Z,40.07
2023-05-05T09:52:54.875Z,40.76
2023-05-05T09:55:23.268Z,40.55
2023-05-05T09:57:51.271Z,39.95
2023-05-05T10:00:19.433Z,40.43
2023-05-05T10:02:47.212Z,40.25
2023-05-05T10:05:16.515Z,39.93
2023-05-05T10:07:45.233Z,38.48
2023-05-05T10:10:16.577Z,37.98
2023-05-05T10:12:46.710Z,37.70
2023-05-05T10:15:15.641Z,38.12
2023-05-05T10:18:05.114Z,38.24
2023-05-05T10:20:35.569Z,36.59
2023-05-05T10:23:05.975Z,36.53
2023-05-05T10:25:39.156Z,36.80
2023-05-05T10:28:09.871Z,36.52
2023-05-05T10:30:42.980Z,36.59
2023-05-05T10:33:30.293Z,36.38
2023-05-05T10:36:02.312Z,35.76
2023-05-05T10:38:33.520Z,36.14
2023-05-05T10:41:02.109Z,36.39
2023-05-05T10:43:30.901Z,35.68
2023-05-05T10:45:59.329Z,35.94
2023-05-05T10:48:50.718Z,36.34
2023-05-05T10:51:39.266Z,36.79
2023-05-05T10:54:27.916Z,36.83
2023-05-05T10:56:56.805Z,37.18
2023-05-05T10:59:39.686Z,37.65
2023-05-05T11:02:21.382Z,37.12
2023-05-05T11:05:08.336Z,37.29
2023-05-05T11:07:37.216Z,36.93
2023-05-05T11:10:06.043Z,36.24
2023-05-05T11:12:53.943Z,36.08
2023-05-05T11:15:27.898Z,35.55
2023-05-05T11:17:56.533Z,35.78
2023-05-05T11:20:40.046Z,35.72
2023-05-05T11:23:08.122Z,36.34
2023-05-05T11:25:40.566Z,36.52
2023-05-05T11:28:12.543Z,35.57
2023-05-05T11:30:59.181Z,35.64
2023-05-05T11:33:30.575Z,34.85
2023-05-05T11:36:03.441Z,33.82
2023-05-05T11:38:38.836Z,34.16
2023-05-05T11:41:13.903Z,34.09
2023-05-05T11:43:42.497Z,34.10
2023-05-05T11:46:11.868Z,33.60
2023-05-05T11:48:49.221Z,33.45
2023-05-05T11:51:18.582Z,34.26
2023-05-05T11:53:47.488Z,34.68
2023-05-05T11:56:25.061Z,34.76
2023-05-05T11:59:06.825Z,34.07
2023-05-05T12:01:35.351Z,34.38
2023-05-05T12:04:03.459Z,34.08
2023-05-05T12:06:34.683Z,33.46
2023-05-05T12:09:02.868Z,32.92
2023-05-05T12:11:30.624Z,32.55
2023-05-05T12:14:11.693Z,33.06
2023-05-05T12:16:39.626Z,32.86
2023-05-05T12:19:08.531Z,33.26
2023-05-05T12:21:36.849Z,33.15
2023-05-05T12:24:04.806Z,32.83
2023-05-05T12:26:32.517Z,31.60
2023-05-05T12:29:01.123Z,31.67
2023-05-05T12:31:35.945Z,31.64
2023-05-05T12:34:04.850Z,31.59
2023-05-05T12:36:33.625Z,31.62
2023-05-05T12:39:01.659Z,31.36
2023-05-05T12:41:29.477Z,31.67
2023-05-05T12:43:58.309Z,30.91
2023-05-05T12:46:26.590Z,30.28
2023-05-05T12:49:05.693Z,29.90
2023-05-05T12:51:34.105Z,29.62
2023-05-05T12:54:05.568Z,30.55
2023-05-05T12:56:35.387Z,30.31
2023-05-05T12:59:07.494Z,30.79
2023-05-05T13:01:36.297Z,30.52
2023-05-05T13:04:04.836Z,30.16
2023-05-05T13:06:32.738Z,30.68
2023-05-05T13:09:00.941Z,30.98
2023-05-05T13:11:28.715Z,30.87
2023-05-05T13:13:56.656Z,30.71
2023-05-05T13:16:24.551Z,30.31
2023-05-05T13:18:53.555Z,29.84
2023-05-05T13:21:21.351Z,29.67
2023-05-05T13:23:49.166Z,30.09
2023-05-05T13:26:17.159Z,29.91
2023-05-05T13:28:44.943Z,29.76
2023-05-05T13:31:12.748Z,29.60
2023-05-05T13:33:40.828Z,29.23
2023-05-05T13:36:08.658Z,28.97
2023-05-05T13:38:36.781Z,28.95
2023-05-05T13:41:04.464Z,29.02
2023-05-05T13:43:32.125Z,28.74
2023-05-05T13:46:12.252Z,29.20
2023-05-05T13:48:47.251Z,28.50
2023-05-05T13:51:16.523Z,29.11
2023-05-05T13:53:45.101Z,28.88
2023-05-05T13:56:13.373Z,29.26
2023-05-05T13:58:42.722Z,29.08
2023-05-05T14:01:11.039Z,29.37
2023-05-05T14:03:39.870Z,29.54
2023-05-05T14:06:09.159Z,29.52
2023-05-05T14:08:37.014Z,30.41
2023-05-05T14:11:04.754Z,29.38
2023-05-05T14:13:32.553Z,28.90
2023-05-05T14:16:00.356Z,29.16
2023-05-05T14:18:28.358Z,29.53
2023-05-05T14:20:56.163Z,29.87
2023-05-05T14:23:23.904Z,30.61
2023-05-05T14:25:51.650Z,30.08
2023-05-05T14:28:19.495Z,28.77
2023-05-05T14:30:47.162Z,29.00
2023-05-05T14:33:14.952Z,28.59
2023-05-05T14:35:42.918Z,28.24
2023-05-05T14:38:10.745Z,27.89
2023-05-05T14:40:38.423Z,27.50
2023-05-05T14:43:06.339Z,27.59
2023-05-05T14:45:34.149Z,28.12
2023-05-05T14:48:02.737Z,28.61
2023-05-05T14:50:30.739Z,28.74
2023-05-05T14:52:58.557Z,29.60
2023-05-05T14:55:26.513Z,30.56
2023-05-05T14:57:54.277Z,30.60
2023-05-05T15:00:22.027Z,30.55
2023-05-05T15:02:49.721Z,30.45
2023-05-05T15:05:17.582Z,31.06
2023-05-05T15:07:45.564Z,31.58
2023-05-05T15:10:13.406Z,31.88
2023-05-05T15:12:42.448Z,31.41
2023-05-05T15:15:10.656Z,30.31
2023-05-05T15:17:38.830Z,30.33
2023-05-05T15:20:07.068Z,30.77
2023-05-05T15:22:36.403Z,31.16
2023-05-05T15:25:04.288Z,31.46
2023-05-05T15:27:32.225Z,31.45
2023-05-05T15:30:00.224Z,31.75
2023-05-05T15:32:28.250Z,31.78
2023-05-05T15:34:56.324Z,31.93
2023-05-05T15:37:24.702Z,32.54
2023-05-05T15:39:52.459Z,32.75
2023-05-05T15:42:20.093Z,32.83
2023-05-05T15:44:47.824Z,33.17
2023-05-05T15:47:15.531Z,33.16
2023-05-05T15:49:43.458Z,33.35
2023-05-05T15:52:11.906Z,33.43
2023-05-05T15:54:39.720Z,34.02
2023-05-05T15:57:07.361Z,34.01
2023-05-05T15:59:35.460Z,33.99
2023-05-05T16:02:03.351Z,34.09
2023-05-05T16:04:31.280Z,34.18
2023-05-05T16:06:59.212Z,34.60
2023-05-05T16:09:27.112Z,34.81
2023-05-05T16:11:55.291Z,34.70
2023-05-05T16:14:23.120Z,34.51
2023-05-05T16:16:50.892Z,34.68
2023-05-05T16:19:18.904Z,35.11
2023-05-05T16:21:46.687Z,35.10
2023-05-05T16:24:17.137Z,35.08
2023-05-05T16:26:45.579Z,35.20
2023-05-05T16:29:13.200Z,35.67
2023-05-05T16:31:41.084Z,35.64
2023-05-05T16:34:09.063Z,35.25
2023-05-05T16:36:36.831Z,35.59
2023-05-05T16:39:04.528Z,35.94
2023-05-05T16:41:32.571Z,36.17
2023-05-05T16:44:00.265Z,36.03
2023-05-05T16:46:28.218Z,35.78
2023-05-05T16:48:56.515Z,36.13
2023-05-05T16:51:24.566Z,36.11
2023-05-05T16:53:52.230Z,36.33
2023-05-05T16:56:19.945Z,36.72
2023-05-05T16:58:47.668Z,36.72
2023-05-05T17:01:15.437Z,36.69
2023-05-05T17:03:43.420Z,36.99
2023-05-05T17:06:13.000Z,37.20
2023-05-05T17:08:40.734Z,37.32
2023-05-05T17:11:10.991Z,37.73
2023-05-05T17:13:40.000Z,37.93
2023-05-05T17:16:07.805Z,38.22
2023-05-05T17:18:37.083Z,38.54
2023-05-05T17:21:05.013Z,38.46
2023-05-05T17:23:32.706Z,38.46
2023-05-05T17:26:00.783Z,38.40
2023-05-05T17:28:28.519Z,38.16
2023-05-05T17:30:59.663Z,38.23
2023-05-05T17:33:27.335Z,38.41
2023-05-05T17:35:55.000Z,38.84
2023-05-05T17:38:23.105Z,39.17
2023-05-05T17:40:50.822Z,39.01
2023-05-05T17:43:18.438Z,39.00
2023-05-05T17:45:46.812Z,39.17
2023-05-05T17:48:14.677Z,39.24
2023-05-05T17:50:43.455Z,39.32
2023-05-05T17:53:11.873Z,39.13
2023-05-05T17:55:39.572Z,39.26
2023-05-05T17:58:07.444Z,39.81
2023-05-05T18:00:35.971Z,40.23
2023-05-05T18:03:04.349Z,40.75
2023-05-05T18:05:32.139Z,41.08
2023-05-05T18:08:00.028Z,41.24
2023-05-05T18:10:27.774Z,41.64
2023-05-05T18:12:55.596Z,42.12
2023-05-05T18:15:23.308Z,42.43
2023-05-05T18:17:51.153Z,42.72
2023-05-05T18:20:19.274Z,43.19
2023-05-05T18:22:47.048Z,43.55
2023-05-05T18:25:15.078Z,43.75
2023-05-05T18:27:43.927Z,43.88
2023-05-05T18:30:11.986Z,43.71
2023-05-05T18:32:39.889Z,43.84
2023-05-05T18:35:08.933Z,44.09
2023-05-05T18:37:36.840Z,44.54
2023-05-05T18:40:04.855Z,44.39
2023-05-05T18:42:32.804Z,44.68
2023-05-05T18:45:00.703Z,44.70
2023-05-05T18:47:28.730Z,45.00
2023-05-05T18:49:56.893Z,45.69
2023-05-05T18:52:25.356Z,45.68
2023-05-05T18:54:53.019Z,45.72
2023-05-05T18:57:20.697Z,46.54
2023-05-05T18:59:48.427Z,46.86
2023-05-05T19:02:16.940Z,47.20
2023-05-05T19:04:44.694Z,46.80
2023-05-05T19:07:18.318Z,47.64
2023-05-05T19:09:49.060Z,47.29
2023-05-05T19:12:18.266Z,48.01
2023-05-05T19:14:46.115Z,48.12
2023-05-05T19:17:13.911Z,48.33
2023-05-05T19:19:41.909Z,48.74
2023-05-05T19:22:10.023Z,49.44
2023-05-05T19:24:37.812Z,49.68
2023-05-05T19:27:05.545Z,49.85
2023-05-05T19:29:33.348Z,50.51
2023-05-05T19:32:01.189Z,50.55
2023-05-05T19:34:29.080Z,50.92
2023-05-05T19:36:56.943Z,50.53
2023-05-05T19:39:24.851Z,50.57
2023-05-05T19:41:53.256Z,50.29
2023-05-05T19:44:22.608Z,50.56
2023-05-05T19:46:50.910Z,51.17
2023-05-05T19:49:18.767Z,51.18
2023-05-05T19:51:49.873Z,51.43
2023-05-05T19:54:18.238Z,52.14
2023-05-05T19:56:46.093Z,52.02
2023-05-05T19:59:13.728Z,52.27
2023-05-05T20:01:41.762Z,52.47
2023-05-05T20:04:09.827Z,52.64
2023-05-05T20:06:37.577Z,52.16
2023-05-05T20:09:05.584Z,52.03
2023-05-05T20:11:33.475Z,52.11
2023-05-05T20:14:01.299Z,52.20
2023-05-05T20:16:29.180Z,52.24
2023-05-05T20:18:57.137Z,52.54
2023-05-05T20:21:24.820Z,53.14
2023-05-05T20:23:54.678Z,53.60
2023-05-05T20:26:22.440Z,53.85
2023-05-05T20:28:50.524Z,54.09
2023-05-05T20:31:18.378Z,54.27
2023-05-05T20:33:46.457Z,54.55
2023-05-05T20:36:14.235Z,54.79
2023-05-05T20:38:43.152Z,54.94
2023-05-05T20:41:11.531Z,55.27
2023-05-05T20:43:39.403Z,55.64
2023-05-05T20:46:10.871Z,55.55
2023-05-05T20:48:42.483Z,55.70
2023-05-05T20:51:11.178Z,56.02
2023-05-05T20:53:38.932Z,56.30
2023-05-05T20:56:08.937Z,56.69
2023-05-05T20:58:37.229Z,57.20
2023-05-05T21:01:05.022Z,57.72
2023-05-05T21:03:32.801Z,57.94
2023-05-05T21:06:01.728Z,57.92
2023-05-05T21:08:29.669Z,58.15
2023-05-05T21:10:57.341Z,58.38
2023-05-05T21:13:25.182Z,58.57
2023-05-05T21:15:53.132Z,58.52
2023-05-05T21:18:21.043Z,58.59
2023-05-05T21:20:48.945Z,58.73
2023-05-05T21:23:16.923Z,58.93
2023-05-05T21:25:44.643Z,58.86
2023-05-05T21:28:12.430Z,59.00
2023-05-05T21:30:40.448Z,59.03
2023-05-05T21:33:08.266Z,59.20
2023-05-05T21:35:36.178Z,59.31
2023-05-05T21:38:03.910Z,59.22
2023-05-05T21:40:31.653Z,59.15
2023-05-05T21:42:59.552Z,59.15
2023-05-05T21:45:27.292Z,59.11
2023-05-05T21:47:55.197Z,59.22
2023-05-05T21:50:22.970Z,59.19
2023-05-05T21:52:50.873Z,59.16
2023-05-05T21:55:18.551Z,58.93
2023-05-05T21:57:46.385Z,58.80
2023-05-05T22:00:16.939Z,58.80
2023-05-05T22:02:45.498Z,58.63
2023-05-05T22:05:13.429Z,58.61
2023-05-05T22:07:41.342Z,58.79
2023-05-05T22:10:09.339Z,58.84
2023-05-05T22:12:37.124Z,58.78
2023-05-05T22:15:05.254Z,58.86
2023-05-05T22:17:33.008Z,58.86
2023-05-05T22:20:00.670Z,58.73
2023-05-05T22:22:28.406Z,58.64
2023-05-05T22:24:56.103Z,58.57
2023-05-05T22:27:23.925Z,58.46
2023-05-05T22:29:51.616Z,58.36
2023-05-05T22:32:20.462Z,58.45
2023-05-05T22:34:48.406Z,58.40
2023-05-05T22:37:16.197Z,58.57
2023-05-05T22:39:43.949Z,58.62
2023-05-05T22:42:11.753Z,58.79
2023-05-05T22:44:39.370Z,58.74
2023-05-05T22:47:07.104Z,58.85
2023-05-05T22:49:35.323Z,58.89
2023-05-05T22:52:03.521Z,58.79
2023-05-05T22:54:31.140Z,58.73
2023-05-05T22:56:59.216Z,58.70
2023-05-05T22:59:27.077Z,58.67
2023-05-05T23:01:54.701Z,58.58
2023-05-05T23:04:22.449Z,58.63
2023-05-05T23:06:50.489Z,58.67
2023-05-05T23:09:18.164Z,58.72
2023-05-05T23:11:45.877Z,58.61
2023-05-05T23:14:13.867Z,58.69
2023-05-05T23:16:41.531Z,58.75
2023-05-05T23:19:09.225Z,58.72
2023-05-05T23:21:49.229Z,58.73
2023-05-05T23:24:20.143Z,58.86
2023-05-05T23:26:48.081Z,58.74
2023-05-05T23:29:15.770Z,58.85
2023-05-05T23:31:43.977Z,58.88
2023-05-05T23:34:11.981Z,58.85
2023-05-05T23:36:39.680Z,58.73
2023-05-05T23:39:07.999Z,58.72
2023-05-05T23:41:36.017Z,58.77
2023-05-05T23:44:03.816Z,58.71
2023-05-05T23:46:31.583Z,58.58
2023-05-05T23:48:59.306Z,58.65
2023-05-05T23:51:31.011Z,58.55
2023-05-05T23:53:58.846Z,58.60
2023-05-05T23:56:26.872Z,58.60
2023-05-05T23:58:54.598Z,58.68
